Overview Statistics Trail Chart Weather Telemetry Raw packets
 

This is the latest recevied weather packets stored in our database for station/object PE1RXF-13. If no packets are shown the sender has not sent any weather packets the latest 10 day(s).

<< 13 14 15 16 17 18 19 >>
Time Temp. Humidity Pressure Rain* Wind** Luminosity Snow
1788296109 12.78° C 99% 1019.5 hPa 0 mm - 0 W/m² -
1788295006 12.78° C 99% 1019.2 hPa 0 mm - 0 W/m² -
1788293903 13.33° C 99% 1019 hPa 0 mm - 0 W/m² -
1788292800 12.78° C 99% 1018.9 hPa 0 mm - 0 W/m² -
1788291697 13.33° C 99% 1019 hPa 0 mm - 0 W/m² -
1788290594 13.33° C 99% 1018.9 hPa 0 mm - 0 W/m² -
1788289505 13.89° C 99% 1019 hPa 0 mm - 0 W/m² -
1788288388 14.44° C 99% 1019 hPa 0 mm - 0 W/m² -
1788287285 15° C 99% 1019 hPa 0 mm - 0 W/m² -
1788286182 15° C 99% 1018.9 hPa 0 mm - 1 W/m² -
1788285079 16.11° C 99% 1018.8 hPa 0 mm - 4 W/m² -
1788283976 16.67° C 98% 1018.6 hPa 0 mm - 6 W/m² -
1788282873 17.78° C 93% 1018.6 hPa 0 mm - 10 W/m² -
1788281770 18.89° C 82% 1018.4 hPa 0 mm - 14 W/m² -
1788280667 18.89° C 88% 1018.4 hPa 0 mm - 35 W/m² -
1788279564 19.44° C 85% 1018.2 hPa 0 mm - 48 W/m² -
1788278461 19.44° C 78% 1018.2 hPa 0 mm - 18 W/m² -
1788277358 20.56° C 72% 1018.1 hPa 0 mm - 87 W/m² -
1788276255 20.56° C 81% 1018 hPa 0 mm - 60 W/m² -
1788275152 22.22° C 68% 1018 hPa 0 mm - 36 W/m² -
1788274049 23.33° C 65% 1017.9 hPa 0 mm - 142 W/m² -
1788272946 23.33° C 61% 1017.8 hPa 0 mm - 55 W/m² -
1788271843 23.89° C 54% 1017.8 hPa 0 mm - 82 W/m² -
1788270740 23.89° C 63% 1017.6 hPa 0 mm - 107 W/m² -
1788269637 23.89° C 55% 1017.6 hPa 0 mm - 164 W/m² -

* Rain latest hour (hover to see other rain measurements)
** Current wind speed in m/s (hover to see current wind gust speed)